Latest Coastal Weather Observations for Burnie Port

IDT60701

Issued at 1:12 pm EST Sunday 30 April 2017 (issued every 10 minutes, with the page automatically refreshed every 10 minutes)

About coastal observations | Map of coastal stations | Coastal observations for TAS | Marine services | Other Formats
Station Details ID: 091344 Name: BURNIE NTC AWS Lat: -41.05 Lon: 145.91 Height: 0.0 m
Data from the previous 72 hours. | See also: Recent months for locations in Tasmania
Date/Time
EST
Temp
°C
Wind Pressure Rain since
9am
mm
Weather Cloud Vis
km
Sea
Height
m
Swell
Dir  Spd
kts
Gust
kts
hPa Trend Height
m
Period
s
Dir
30/01:00pm 13.8 NW 6 9 1018.7 - - - - - - - - -
30/12:30pm 14.1 W 3 6 1019.2 - - - - - - - - -
30/12:00pm 13.6 W 5 9 1019.8 - - - - - - - - -
30/11:30am 13.4 NW 8 11 1020.4 - - - - - - - - -
30/11:00am 13.3 NW 11 14 1020.6 - - - - - - - - -
30/10:30am 13.6 NW 9 14 1020.6 - - - - - - - - -
30/10:00am 13.5 NW 10 14 1020.9 - - - - - - - - -
30/09:30am 13.1 NW 9 13 1021.1 - - - - - - - - -
30/09:00am 12.9 NW 9 12 1021.2 - - - - - - - - -
30/08:30am 13.4 NW 8 11 1021.2 - - - - - - - - -
30/08:00am 13.6 NNW 7 9 1021.2 - - - - - - - - -
30/07:30am 13.7 N 5 10 1020.9 - - - - - - - - -
30/07:00am 13.6 N 5 7 1020.7 - - - - - - - - -
30/06:30am 13.8 N 6 8 1020.6 - - - - - - - - -
30/06:00am 14.1 N 6 8 1020.5 - - - - - - - - -
30/05:30am 14.4 N 6 8 1020.4 - - - - - - - - -
30/05:00am 13.8 SE 5 8 1020.4 - - - - - - - - -
30/04:30am 14.1 SE 6 9 1020.3 - - - - - - - - -
30/04:00am 14.2 ESE 8 10 1020.3 - - - - - - - - -
30/03:30am 13.5 SSE 6 9 1020.5 - - - - - - - - -
30/03:00am 13.3 S 6 9 1020.5 - - - - - - - - -
30/02:30am 13.4 S 8 10 1020.6 - - - - - - - - -
30/02:00am 13.4 S 7 9 1020.6 - - - - - - - - -
30/01:30am 13.2 S 7 9 1020.7 - - - - - - - - -
30/01:00am 13.0 SSW 6 8 1020.8 - - - - - - - - -
30/12:30am 13.2 S 6 7 1020.8 - - - - - - - - -
30/12:00am 13.2 SW 3 5 1020.9 - - - - - - - - -
 
Date/Time
EST
Temp
°C
Wind Pressure Rain since
9am
mm
Weather Cloud Vis
km
Sea
Height
m
Swell
Dir  Spd
kts
Gust
kts
hPa Trend Height
m
Period
s
Dir
29/11:30pm 12.7 SSW 5 6 1020.7 - - - - - - - - -
29/11:00pm 13.5 SSW 3 5 1020.6 - - - - - - - - -
29/10:30pm 13.7 SSW 6 8 1020.4 - - - - - - - - -
29/10:00pm 13.7 SSW 8 9 1020.4 - - - - - - - - -
29/09:30pm 13.4 SSW 7 9 1020.2 - - - - - - - - -
29/09:00pm 13.3 SSW 9 12 1020.2 - - - - - - - - -
29/08:30pm 13.5 SSW 9 12 1019.8 - - - - - - - - -
29/08:00pm 13.4 SSW 10 13 1019.8 - - - - - - - - -
29/07:30pm 13.9 SSW 10 12 1019.7 - - - - - - - - -
29/07:00pm 14.0 SSW 11 15 1019.4 - - - - - - - - -
29/06:30pm 14.6 SW 8 13 1019.2 - - - - - - - - -
29/06:00pm 15.2 SW 8 12 1018.7 - - - - - - - - -
29/05:30pm 15.7 SW 10 16 1018.2 - - - - - - - - -
29/05:00pm 16.5 SW 9 17 1018.0 - - - - - - - - -
29/04:30pm 17.2 SW 9 14 1017.7 - - - - - - - - -
29/04:00pm 17.6 WSW 10 16 1017.6 - - - - - - - - -
29/03:30pm 17.8 SW 8 13 1017.3 - - - - - - - - -
29/03:00pm 17.9 SW 8 14 1017.1 - - - - - - - - -
29/02:30pm 17.8 SW 10 15 1016.8 - - - - - - - - -
29/02:00pm 17.7 SW 9 16 1016.9 - - - - - - - - -
29/01:30pm 17.5 SW 6 14 1017.0 - - - - - - - - -
29/01:00pm 17.2 SW 7 12 1017.1 - - - - - - - - -
29/12:30pm 17.2 WSW 10 16 1017.1 - - - - - - - - -
29/12:00pm 16.8 SW 11 18 1017.3 - - - - - - - - -
29/11:30am 16.8 WSW 10 18 1017.4 - - - - - - - - -
29/11:00am 16.3 SW 9 17 1017.2 - - - - - - - - -
29/10:30am 15.7 SW 9 16 1017.1 - - - - - - - - -
29/10:00am 15.3 WSW 9 17 1016.8 - - - - - - - - -
29/09:30am 15.0 WSW 9 14 1017.1 - - - - - - - - -
29/09:00am 14.8 W 9 15 1017.2 - - - - - - - - -
29/08:30am 14.4 WNW 6 10 1017.0 - - - - - - - - -
29/08:00am 14.0 WNW 4 7 1016.7 - - - - - - - - -
29/07:30am 13.7 W 5 9 1016.2 - - - - - - - - -
29/07:00am 13.8 W 8 13 1015.6 - - - - - - - - -
29/06:30am 13.9 W 8 11 1015.3 - - - - - - - - -
29/06:00am 14.1 WSW 8 11 1014.9 - - - - - - - - -
29/05:30am 14.2 W 9 13 1014.9 - - - - - - - - -
29/05:00am 14.2 W 9 13 1014.6 - - - - - - - - -
29/04:30am 14.3 W 10 14 1014.1 - - - - - - - - -
29/04:00am 14.1 W 8 12 1013.9 - - - - - - - - -
29/03:30am 14.7 W 9 15 1013.9 - - - - - - - - -
29/03:00am 14.3 W 7 10 1013.8 - - - - - - - - -
29/02:30am 14.3 WNW 8 13 1014.0 - - - - - - - - -
29/02:00am 14.3 WNW 8 14 1014.2 - - - - - - - - -
29/01:30am 14.4 WNW 9 15 1014.1 - - - - - - - - -
29/01:00am 14.5 WNW 9 14 1014.3 - - - - - - - - -
29/12:30am 14.6 WNW 11 17 1014.3 - - - - - - - - -
29/12:00am 14.2 WNW 7 12 1014.5 - - - - - - - - -
 
Date/Time
EST
Temp
°C
Wind Pressure Rain since
9am
mm
Weather Cloud Vis
km
Sea
Height
m
Swell
Dir  Spd
kts
Gust
kts
hPa Trend Height
m
Period
s
Dir
28/11:30pm 14.3 WNW 8 12 1014.7 - - - - - - - - -
28/11:00pm 14.3 WNW 8 13 1014.8 - - - - - - - - -
28/10:30pm 14.5 WNW 7 13 1015.0 - - - - - - - - -
28/10:00pm 14.4 WNW 7 14 1015.1 - - - - - - - - -
28/09:30pm 14.5 WNW 8 12 1015.2 - - - - - - - - -
28/09:00pm 14.6 WNW 9 12 1015.1 - - - - - - - - -
28/08:30pm 14.8 WNW 9 12 1015.1 - - - - - - - - -
28/08:00pm 14.8 WNW 7 11 1015.1 - - - - - - - - -
28/07:30pm 14.9 WNW 9 14 1015.2 - - - - - - - - -
28/07:00pm 15.3 WNW 10 14 1015.2 - - - - - - - - -
28/06:30pm 15.4 WNW 7 13 1015.2 - - - - - - - - -
28/06:00pm 15.2 WNW 9 15 1014.8 - - - - - - - - -
28/05:30pm 15.2 WNW 8 13 1015.1 - - - - - - - - -
28/05:00pm 15.7 WNW 10 17 1015.0 - - - - - - - - -
28/04:30pm 16.4 W 8 15 1015.1 - - - - - - - - -
28/04:00pm 16.7 WNW 7 12 1015.0 - - - - - - - - -
28/03:30pm 16.9 W 10 17 1015.0 - - - - - - - - -
28/03:00pm 17.6 W 10 17 1015.0 - - - - - - - - -
28/02:30pm 17.1 W 13 22 1015.0 - - - - - - - - -
28/02:03pm 17.0 W 15 27 1015.2 - - - - - - - - -
28/02:00pm 17.1 W 13 24 1015.2 - - - - - - - - -
28/01:30pm 16.7 W 11 21 1015.6 - - - - - - - - -
28/01:00pm 15.9 WSW 9 17 1016.2 - - - - - - - - -
28/12:30pm 15.7 W 12 21 1016.5 - - - - - - - - -
28/12:00pm 15.9 W 9 17 1017.1 - - - - - - - - -
28/11:30am 14.8 W 11 20 1017.5 - - - - - - - - -
28/11:00am 14.8 W 9 17 1017.7 - - - - - - - - -
28/10:30am 14.9 WNW 9 14 1017.9 - - - - - - - - -
28/10:00am 14.3 WNW 8 13 1017.7 - - - - - - - - -
28/09:30am 14.3 WNW 6 14 1017.8 - - - - - - - - -
28/09:00am 13.8 W 8 11 1017.9 - - - - - - - - -
28/08:30am 13.4 W 7 10 1018.0 - - - - - - - - -
28/08:00am 13.0 WNW 7 12 1017.9 - - - - - - - - -
28/07:30am 12.9 W 8 13 1017.5 - - - - - - - - -
28/07:00am 13.0 WNW 6 9 1017.0 - - - - - - - - -
28/06:30am 13.2 W 8 12 1016.7 - - - - - - - - -
28/06:00am 13.6 W 9 13 1016.6 - - - - - - - - -
28/05:30am 13.8 W 8 12 1016.3 - - - - - - - - -
28/05:00am 14.2 WNW 8 14 1016.3 - - - - - - - - -
28/04:30am 14.1 WNW 12 17 1015.9 - - - - - - - - -
28/04:00am 14.3 WNW 10 17 1015.8 - - - - - - - - -
28/03:30am 14.4 WNW 12 17 1015.9 - - - - - - - - -
28/03:00am 14.4 WNW 10 15 1016.2 - - - - - - - - -
28/02:30am 14.6 WNW 9 16 1016.4 - - - - - - - - -
28/02:00am 14.3 NW 13 17 1016.4 - - - - - - - - -
28/01:30am 14.1 NW 12 16 1016.3 - - - - - - - - -
28/01:00am 14.3 WNW 12 17 1016.5 - - - - - - - - -
28/12:30am 13.7 WNW 8 11 1016.7 - - - - - - - - -
28/12:00am 13.4 WNW 9 13 1016.9 - - - - - - - - -
 
Date/Time
EST
Temp
°C
Wind Pressure Rain since
9am
mm
Weather Cloud Vis
km
Sea
Height
m
Swell
Dir  Spd
kts
Gust
kts
hPa Trend Height
m
Period
s
Dir
27/11:30pm 13.6 WNW 10 15 1017.2 - - - - - - - - -

Other Formats:

Comma delimited format used in spreadsheet applications
http://www.bom.gov.au/fwo/IDT60701/IDT60701.95963.axf

JavaScript Object Notation format (JSON) in row-major order
http://www.bom.gov.au/fwo/IDT60701/IDT60701.95963.json